Time;durP1;ratioP1;P1;durP2;ratioP2;P2;SDS_P1;SDS_P2;PMS_P1;PMS_P2;Temp;Humidity;BMP_temperature;BMP_pressure;BME280_temperature;BME280_humidity;BME280_pressure;Samples;Min_cycle;Max_cycle;Signal;HPM_P1;HPM_P2
2024/03/01 00:00:24;;;;;;;9.40;5.00;;;;;;;7.25;100.00;101126.56;5033423;28;20586;-69
2024/03/01 00:02:50;;;;;;;12.70;4.80;;;;;;;8.09;100.00;101241.81;5032477;28;20705;-69
2024/03/01 00:05:16;;;;;;;8.80;5.13;;;;;;;8.06;100.00;101219.97;5024019;28;20188;-69
2024/03/01 00:07:41;;;;;;;10.43;5.70;;;;;;;8.25;100.00;101235.59;5027087;28;20831;-69
2024/03/01 00:10:07;;;;;;;11.10;5.63;;;;;;;7.24;100.00;101062.72;5023580;28;20269;-70
2024/03/01 00:12:34;;;;;;;10.30;5.63;;;;;;;8.22;100.00;101211.06;5022813;28;20196;-69
2024/03/01 00:14:59;;;;;;;11.00;4.90;;;;;;;8.23;100.00;101202.03;5029762;28;20546;-70
2024/03/01 00:17:25;;;;;;;9.80;5.33;;;;;;;8.02;100.00;101150.03;5024132;28;20546;-70
2024/03/01 00:19:50;;;;;;;11.40;5.80;;;;;;;7.52;100.00;101041.78;5028639;28;20204;-71
2024/03/01 00:22:15;;;;;;;12.83;5.90;;;;;;;8.11;100.00;101164.16;5028568;28;20215;-70
2024/03/01 00:24:42;;;;;;;9.53;5.40;;;;;;;8.23;100.00;101169.97;5027015;28;20188;-69
2024/03/01 00:27:07;;;;;;;9.23;5.40;;;;;;;8.13;100.00;101173.69;5019518;28;20202;-69
2024/03/01 00:29:33;;;;;;;10.00;5.07;;;;;;;8.10;100.00;101174.03;5018394;28;20449;-68
2024/03/01 00:31:59;;;;;;;11.73;5.53;;;;;;;8.19;100.00;101171.28;5027634;28;20200;-68
2024/03/01 00:34:24;;;;;;;9.50;5.47;;;;;;;8.18;100.00;101165.13;5026747;28;20184;-68
2024/03/01 00:36:49;;;;;;;10.40;5.53;;;;;;;7.99;100.00;101129.00;5019309;28;20666;-68
2024/03/01 00:39:15;;;;;;;11.50;5.77;;;;;;;8.09;100.00;101150.16;5024259;28;20222;-68
2024/03/01 00:41:40;;;;;;;9.10;4.83;;;;;;;7.78;100.00;101084.22;5027172;28;20558;-69
2024/03/01 00:44:06;;;;;;;12.20;6.03;;;;;;;8.03;100.00;101156.19;5026378;28;20211;-68
2024/03/01 00:46:31;;;;;;;10.00;5.20;;;;;;;8.03;100.00;101126.81;5031601;28;20658;-70
2024/03/01 00:48:57;;;;;;;10.63;5.70;;;;;;;7.73;100.00;101089.22;5026414;28;20836;-68
2024/03/01 00:51:22;;;;;;;10.03;5.10;;;;;;;7.93;100.00;101114.50;5029904;28;20606;-69
2024/03/01 00:53:49;;;;;;;10.83;5.80;;;;;;;8.06;100.00;101110.44;5028121;28;20192;-70
2024/03/01 00:56:15;;;;;;;9.70;5.07;;;;;;;7.85;100.00;101127.91;5026933;28;20232;-70
2024/03/01 00:58:40;;;;;;;10.53;5.40;;;;;;;8.14;100.00;101131.75;5029204;28;20537;-69
2024/03/01 01:01:05;;;;;;;12.37;5.87;;;;;;;7.99;100.00;101120.16;5035075;28;20204;-69
2024/03/01 01:03:31;;;;;;;11.10;4.70;;;;;;;7.51;100.00;101017.91;5029667;28;20191;-69
2024/03/01 01:05:56;;;;;;;10.43;5.10;;;;;;;8.03;100.00;101092.06;5032415;28;20215;-68
2024/03/01 01:08:24;;;;;;;11.30;5.27;;;;;;;8.19;100.00;101117.84;5011517;28;20197;-68
2024/03/01 01:10:50;;;;;;;10.57;4.80;;;;;;;8.25;100.00;101141.22;5050687;28;20262;-68
2024/03/01 01:13:15;;;;;;;10.17;4.90;;;;;;;8.26;100.00;101134.88;5034069;28;20449;-68
2024/03/01 01:15:41;;;;;;;9.20;4.57;;;;;;;8.27;100.00;101128.50;5037039;28;20673;-69
2024/03/01 01:18:06;;;;;;;8.40;4.90;;;;;;;8.25;100.00;101136.72;5042550;28;20847;-68
2024/03/01 01:20:32;;;;;;;9.23;5.10;;;;;;;8.15;100.00;101118.22;5031506;28;20619;-70
2024/03/01 01:22:57;;;;;;;8.40;4.30;;;;;;;7.96;100.00;101097.31;5033801;28;20192;-69
2024/03/01 01:25:22;;;;;;;10.33;4.73;;;;;;;8.15;100.00;101146.78;5032790;28;20184;-68
2024/03/01 01:27:48;;;;;;;11.17;5.30;;;;;;;8.10;100.00;101139.31;5030180;28;20184;-68
2024/03/01 01:30:13;;;;;;;15.23;4.87;;;;;;;7.89;100.00;101083.78;5044737;28;20204;-69
2024/03/01 01:32:39;;;;;;;8.57;4.70;;;;;;;7.73;100.00;101043.03;5031577;28;20206;-69
2024/03/01 01:35:05;;;;;;;9.70;4.40;;;;;;;8.21;100.00;101114.00;5034560;28;20193;-68
2024/03/01 01:37:30;;;;;;;8.70;4.53;;;;;;;7.83;100.00;101044.44;5033086;28;20819;-69
2024/03/01 01:39:55;;;;;;;8.90;4.67;;;;;;;7.93;100.00;101041.56;5031756;28;20580;-69
2024/03/01 01:42:21;;;;;;;8.97;4.80;;;;;;;8.17;100.00;101093.19;5035303;28;20184;-69
2024/03/01 01:44:46;;;;;;;8.57;4.10;;;;;;;8.30;100.00;101080.91;5034458;28;20196;-68
2024/03/01 01:47:12;;;;;;;8.20;4.33;;;;;;;7.26;100.00;100924.63;5035638;28;20191;-68
2024/03/01 01:49:39;;;;;;;10.43;4.70;;;;;;;7.62;100.00;100980.16;5033718;28;20214;-69
2024/03/01 01:52:05;;;;;;;8.60;4.63;;;;;;;7.98;100.00;101049.03;5037858;28;20199;-69
2024/03/01 01:54:31;;;;;;;9.70;5.00;;;;;;;8.29;100.00;101067.69;5039641;28;20435;-69
2024/03/01 01:56:57;;;;;;;11.10;4.70;;;;;;;8.23;100.00;101079.09;5038318;28;20439;-71
2024/03/01 01:59:22;;;;;;;9.43;4.70;;;;;;;8.12;100.00;101041.06;5027194;28;20978;-71
2024/03/01 02:01:48;;;;;;;9.60;5.30;;;;;;;7.33;100.00;100906.09;5034720;28;20311;-68
2024/03/01 02:04:13;;;;;;;11.53;5.60;;;;;;;7.86;100.00;100987.19;5032484;28;20218;-69
2024/03/01 02:06:39;;;;;;;10.17;5.57;;;;;;;8.23;100.00;101037.16;5030728;28;20664;-69
2024/03/01 02:09:12;;;;;;;10.20;5.43;;;;;;;8.15;100.00;101039.91;5044672;28;20192;-68
2024/03/01 02:11:38;;;;;;;12.47;6.00;;;;;;;7.90;100.00;101005.34;5029402;28;20208;-69
2024/03/01 02:14:04;;;;;;;10.73;5.70;;;;;;;7.57;100.00;100953.16;5033274;28;20453;-68
2024/03/01 02:16:29;;;;;;;11.90;6.50;;;;;;;7.32;100.00;100931.97;5033674;28;20470;-69
2024/03/01 02:18:55;;;;;;;11.77;6.43;;;;;;;7.37;100.00;100932.25;5033273;28;20179;-69
2024/03/01 02:21:24;;;;;;;11.10;6.40;;;;;;;7.95;100.00;101068.09;5031340;28;20650;-71
2024/03/01 02:23:50;;;;;;;11.13;6.57;;;;;;;7.50;100.00;101001.06;5036966;28;20233;-68
2024/03/01 02:26:15;;;;;;;11.80;6.90;;;;;;;7.87;100.00;101080.50;5027322;28;20443;-68
2024/03/01 02:28:45;;;;;;;10.40;6.50;;;;;;;7.84;100.00;101056.81;5050182;28;20195;-68
2024/03/01 02:31:11;;;;;;;11.37;6.43;;;;;;;7.42;100.00;101012.63;5030823;28;20207;-69
2024/03/01 02:33:37;;;;;;;10.20;5.53;;;;;;;7.24;100.00;100998.69;5031836;28;20474;-71
2024/03/01 02:36:03;;;;;;;15.47;7.33;;;;;;;7.37;100.00;101017.63;5034695;28;20439;-68
2024/03/01 02:38:29;;;;;;;13.17;7.70;;;;;;;7.44;100.00;101053.31;5034734;28;20249;-69
2024/03/01 02:40:54;;;;;;;12.30;7.07;;;;;;;7.56;100.00;101075.13;5031675;28;20462;-69
2024/03/01 02:43:20;;;;;;;12.03;6.90;;;;;;;7.49;100.00;101082.13;5030176;28;20225;-69
2024/03/01 02:45:45;;;;;;;12.70;7.33;;;;;;;7.47;100.00;101050.31;5034747;28;20221;-69
2024/03/01 02:48:11;;;;;;;13.33;7.17;;;;;;;7.64;100.00;101084.94;5035745;28;20181;-69
2024/03/01 02:50:36;;;;;;;11.73;5.83;;;;;;;7.31;100.00;101001.50;5031144;28;20211;-69
2024/03/01 02:53:01;;;;;;;12.20;6.27;;;;;;;7.58;100.00;101035.75;5034356;28;20187;-68
2024/03/01 02:55:27;;;;;;;11.10;6.20;;;;;;;7.49;100.00;101002.06;5023732;28;20238;-68
2024/03/01 02:57:54;;;;;;;10.70;6.50;;;;;;;7.58;100.00;101021.53;5035822;28;20192;-70
2024/03/01 03:00:20;;;;;;;11.17;6.40;;;;;;;7.77;100.00;101047.81;5032836;28;20212;-68
2024/03/01 03:02:46;;;;;;;11.20;6.00;;;;;;;7.28;100.00;100972.50;5031701;28;20512;-69
2024/03/01 03:05:12;;;;;;;11.33;6.53;;;;;;;7.58;100.00;101041.09;5029326;28;20937;-69
2024/03/01 03:07:38;;;;;;;10.57;5.90;;;;;;;7.40;100.00;100990.59;5030273;28;20439;-68
2024/03/01 03:10:05;;;;;;;10.90;6.20;;;;;;;7.61;100.00;101019.38;5031383;28;20216;-69
2024/03/01 03:12:30;;;;;;;11.30;6.33;;;;;;;7.67;100.00;101010.66;5025343;28;20509;-68
2024/03/01 03:14:56;;;;;;;10.60;6.03;;;;;;;7.47;100.00;100980.06;5036512;28;21084;-69
2024/03/01 03:17:22;;;;;;;11.93;6.33;;;;;;;7.46;100.00;100976.59;5030414;28;23010;-69
2024/03/01 03:19:49;;;;;;;11.60;6.67;;;;;;;7.40;100.00;100937.22;5031040;28;20230;-69
2024/03/01 03:22:15;;;;;;;11.00;6.20;;;;;;;7.62;100.00;100994.34;5027956;28;20461;-69
2024/03/01 03:24:41;;;;;;;11.27;5.60;;;;;;;7.68;100.00;100998.97;5042190;28;20455;-70
2024/03/01 03:27:07;;;;;;;11.50;6.50;;;;;;;7.43;100.00;100928.91;5030493;28;20192;-70
2024/03/01 03:29:33;;;;;;;12.90;6.87;;;;;;;7.41;100.00;101005.63;5028533;28;20439;-70
2024/03/01 03:31:59;;;;;;;12.53;6.70;;;;;;;7.50;100.00;100974.38;5033646;28;20729;-69
2024/03/01 03:34:24;;;;;;;10.50;5.97;;;;;;;7.51;100.00;100992.06;5031767;28;20443;-69
2024/03/01 03:36:50;;;;;;;14.20;6.80;;;;;;;7.64;100.00;100972.81;5031674;28;21734;-69
2024/03/01 03:39:16;;;;;;;12.80;7.60;;;;;;;7.43;100.00;100958.25;5030103;28;20245;-69
2024/03/01 03:41:42;;;;;;;12.13;6.90;;;;;;;7.64;100.00;100957.63;5031636;28;20208;-70
2024/03/01 03:44:08;;;;;;;9.93;5.70;;;;;;;7.29;100.00;100918.97;5036868;28;20677;-70
2024/03/01 03:46:34;;;;;;;12.70;6.10;;;;;;;6.82;100.00;100799.84;5032459;28;20477;-69
2024/03/01 03:48:59;;;;;;;9.37;6.07;;;;;;;7.64;100.00;100948.78;5026777;28;20191;-69
2024/03/01 03:51:28;;;;;;;11.77;6.00;;;;;;;7.51;100.00;100953.88;5024676;28;20293;-69
2024/03/01 03:53:54;;;;;;;12.03;5.90;;;;;;;7.53;100.00;100949.19;5033827;28;20254;-70
2024/03/01 03:56:20;;;;;;;11.53;6.60;;;;;;;7.19;100.00;100889.00;5033813;28;20443;-70
2024/03/01 03:58:47;;;;;;;11.77;7.20;;;;;;;6.92;100.00;100848.47;5029567;28;20446;-70
2024/03/01 04:01:12;;;;;;;13.10;7.30;;;;;;;7.53;100.00;100939.34;5025106;28;20627;-69
2024/03/01 04:03:38;;;;;;;10.83;5.60;;;;;;;7.40;100.00;100917.72;5020375;28;20893;-70
2024/03/01 04:06:06;;;;;;;11.80;7.10;;;;;;;7.42;100.00;100918.38;5022965;28;20215;-70
2024/03/01 04:08:31;;;;;;;13.43;6.67;;;;;;;6.81;100.00;100835.53;5028021;28;20927;-70
2024/03/01 04:10:57;;;;;;;11.80;6.67;;;;;;;7.56;100.00;100940.81;5038891;28;20466;-69
2024/03/01 04:13:25;;;;;;;10.70;6.20;;;;;;;7.47;100.00;100927.53;5029127;28;20596;-69
2024/03/01 04:15:50;;;;;;;11.90;6.27;;;;;;;7.09;100.00;100867.88;5025238;28;20655;-70
2024/03/01 04:18:17;;;;;;;10.47;6.53;;;;;;;7.44;100.00;100900.38;5025255;28;20446;-69
2024/03/01 04:20:44;;;;;;;11.47;6.60;;;;;;;7.34;100.00;100875.72;5020658;28;20214;-70
2024/03/01 04:23:10;;;;;;;9.93;6.03;;;;;;;7.67;100.00;100924.41;5023822;28;20873;-69
2024/03/01 04:25:36;;;;;;;15.47;7.07;;;;;;;7.44;100.00;100922.53;5026841;28;20439;-70
2024/03/01 04:28:01;;;;;;;11.97;6.40;;;;;;;7.45;100.00;100921.53;5029804;28;20192;-70
2024/03/01 04:30:27;;;;;;;12.10;6.30;;;;;;;7.67;100.00;100935.09;5022406;28;20727;-69
2024/03/01 04:32:53;;;;;;;12.97;6.83;;;;;;;7.27;100.00;100850.78;5026089;28;20181;-70
2024/03/01 04:35:18;;;;;;;10.87;5.93;;;;;;;7.69;100.00;100919.69;5031181;28;20223;-69
2024/03/01 04:37:44;;;;;;;13.23;6.53;;;;;;;7.73;100.00;100937.03;5025805;28;20188;-70
2024/03/01 04:40:11;;;;;;;11.33;6.60;;;;;;;7.22;100.00;100867.31;5039677;28;20233;-69
2024/03/01 04:42:41;;;;;;;16.40;6.93;;;;;;;7.54;100.00;100927.63;5029425;28;20191;-69
2024/03/01 04:45:07;;;;;;;10.90;6.27;;;;;;;7.60;100.00;100932.28;5027842;28;20458;-69
2024/03/01 04:47:33;;;;;;;11.50;6.60;;;;;;;7.53;100.00;100906.47;5030984;28;20458;-69
2024/03/01 04:49:58;;;;;;;12.73;7.40;;;;;;;6.85;100.00;100852.81;5025412;28;20483;-69
2024/03/01 04:52:26;;;;;;;11.10;6.50;;;;;;;7.78;100.00;100948.03;5025788;28;20214;-69
2024/03/01 04:54:52;;;;;;;11.17;7.00;;;;;;;7.63;100.00;100947.94;5036723;28;20215;-68
2024/03/01 04:57:17;;;;;;;10.83;6.50;;;;;;;7.47;100.00;100890.16;5022117;28;20548;-68
2024/03/01 04:59:43;;;;;;;10.90;6.90;;;;;;;7.03;100.00;100833.91;5027233;28;20522;-69
2024/03/01 05:02:08;;;;;;;12.23;7.00;;;;;;;6.89;100.00;100808.00;5024784;28;20183;-69
2024/03/01 05:04:34;;;;;;;11.43;6.87;;;;;;;7.36;100.00;100871.88;5026645;28;20198;-69
2024/03/01 05:07:00;;;;;;;16.20;7.67;;;;;;;7.75;100.00;100944.84;5026518;28;20184;-68
2024/03/01 05:09:26;;;;;;;12.00;7.27;;;;;;;7.81;100.00;100937.00;5028988;28;20467;-69
2024/03/01 05:11:51;;;;;;;12.50;7.47;;;;;;;7.79;100.00;100927.50;5022683;28;20695;-68
2024/03/01 05:14:17;;;;;;;16.50;7.87;;;;;;;7.69;100.00;100909.03;5025357;28;20704;-68
2024/03/01 05:16:42;;;;;;;13.13;7.63;;;;;;;7.30;100.00;100855.75;5033761;28;20205;-69
2024/03/01 05:19:07;;;;;;;11.67;7.43;;;;;;;7.60;100.00;100907.41;5026281;28;20636;-68
2024/03/01 05:21:33;;;;;;;12.87;8.07;;;;;;;7.73;100.00;100930.88;5030550;28;20296;-68
2024/03/01 05:23:58;;;;;;;11.97;6.70;;;;;;;7.72;100.00;100959.38;5026095;28;20188;-69
2024/03/01 05:26:25;;;;;;;11.27;7.07;;;;;;;7.77;100.00;100916.16;5031556;28;20192;-68
2024/03/01 05:28:51;;;;;;;12.87;7.50;;;;;;;7.50;100.00;100886.31;5029942;28;20568;-67
2024/03/01 05:31:18;;;;;;;14.23;7.70;;;;;;;7.77;100.00;100940.19;5027602;28;20481;-68
2024/03/01 05:33:43;;;;;;;13.43;8.13;;;;;;;7.75;100.00;100945.69;5030677;28;20442;-68
2024/03/01 05:36:10;;;;;;;12.10;7.30;;;;;;;7.79;100.00;100952.34;5024855;28;20457;-68
2024/03/01 05:38:35;;;;;;;12.90;7.60;;;;;;;7.15;100.00;100847.69;5028848;28;20555;-69
2024/03/01 05:41:00;;;;;;;13.90;8.37;;;;;;;7.68;100.00;100926.88;5031360;28;20465;-69
2024/03/01 05:43:26;;;;;;;15.10;7.73;;;;;;;7.84;100.00;100930.44;5027968;28;20635;-68
2024/03/01 05:45:52;;;;;;;13.30;8.33;;;;;;;7.80;100.00;100943.31;5033293;28;20196;-69
2024/03/01 05:48:18;;;;;;;13.73;8.60;;;;;;;7.76;100.00;100934.00;5029866;28;20192;-68
2024/03/01 05:50:43;;;;;;;12.87;8.00;;;;;;;7.87;100.00;100925.59;5030298;28;20215;-69
2024/03/01 05:53:14;;;;;;;13.03;7.27;;;;;;;7.24;100.00;100836.78;5036227;28;20464;-68
2024/03/01 05:55:42;;;;;;;11.70;7.47;;;;;;;7.88;100.00;100924.56;5033291;28;22652;-69
2024/03/01 05:58:08;;;;;;;12.10;8.17;;;;;;;7.84;100.00;100911.75;5032177;28;20442;-69
2024/03/01 06:00:34;;;;;;;12.17;7.77;;;;;;;7.62;100.00;100908.09;5028056;28;20485;-68
2024/03/01 06:02:59;;;;;;;14.33;9.17;;;;;;;7.86;100.00;100928.41;5026457;28;20956;-68
2024/03/01 06:05:24;;;;;;;12.33;7.93;;;;;;;7.46;100.00;100859.16;5033666;28;20284;-69
2024/03/01 06:07:50;;;;;;;12.67;8.67;;;;;;;7.74;100.00;100916.50;5024301;28;20670;-69
2024/03/01 06:10:17;;;;;;;12.40;8.40;;;;;;;7.48;100.00;100845.63;5031231;28;20673;-69
2024/03/01 06:12:42;;;;;;;13.30;8.60;;;;;;;7.44;100.00;100833.66;5027895;28;20224;-69
2024/03/01 06:15:08;;;;;;;13.17;8.83;;;;;;;7.82;100.00;100887.06;5027420;28;20446;-69
2024/03/01 06:17:34;;;;;;;14.30;8.40;;;;;;;7.17;100.00;100798.47;5030606;28;20566;-69
2024/03/01 06:20:00;;;;;;;14.40;8.23;;;;;;;6.85;100.00;100754.19;5022522;28;20671;-68
2024/03/01 06:22:25;;;;;;;15.90;7.80;;;;;;;7.47;100.00;100831.44;5024332;28;20239;-68
2024/03/01 06:24:51;;;;;;;14.90;9.40;;;;;;;7.32;100.00;100851.06;5022435;28;21005;-68
2024/03/01 06:27:16;;;;;;;14.63;8.57;;;;;;;7.17;100.00;100801.13;5029393;28;20194;-68
2024/03/01 06:29:42;;;;;;;15.90;8.80;;;;;;;7.77;100.00;100886.78;5028922;28;20272;-69
2024/03/01 06:32:10;;;;;;;15.23;8.73;;;;;;;7.88;100.00;100897.03;5030509;28;20195;-68
2024/03/01 06:34:36;;;;;;;13.40;8.40;;;;;;;7.56;100.00;100844.72;5022123;28;20272;-68
2024/03/01 06:37:02;;;;;;;14.53;9.27;;;;;;;7.31;100.00;100785.38;5031568;28;20438;-68
2024/03/01 06:39:27;;;;;;;16.57;9.20;;;;;;;7.82;100.00;100863.88;5045327;28;20206;-68
2024/03/01 06:41:53;;;;;;;13.87;8.97;;;;;;;7.87;100.00;100876.69;5047759;28;20291;-68
2024/03/01 06:44:23;;;;;;;14.10;8.70;;;;;;;7.69;100.00;100864.50;5033906;28;20180;-68
2024/03/01 06:46:49;;;;;;;14.07;8.87;;;;;;;7.86;100.00;100861.66;5035151;28;20195;-68
2024/03/01 06:49:14;;;;;;;16.20;9.17;;;;;;;8.02;100.00;100882.88;5031586;28;20446;-68
2024/03/01 06:51:40;;;;;;;14.70;9.00;;;;;;;7.51;100.00;100817.75;5034668;28;20497;-68
2024/03/01 06:54:05;;;;;;;16.80;9.50;;;;;;;7.43;100.00;100802.59;5031135;28;20188;-68
2024/03/01 06:56:31;;;;;;;14.37;9.23;;;;;;;7.87;100.00;100866.00;5025925;28;20195;-69
2024/03/01 06:58:56;;;;;;;14.37;9.13;;;;;;;7.59;100.00;100831.03;5042698;28;20214;-69
2024/03/01 07:01:21;;;;;;;16.40;9.00;;;;;;;7.91;100.00;100875.31;5017827;28;20208;-69
2024/03/01 07:03:47;;;;;;;15.13;9.53;;;;;;;7.86;100.00;100862.47;5035794;28;20197;-69
2024/03/01 07:06:12;;;;;;;16.47;10.60;;;;;;;8.10;100.00;100909.53;5030488;28;20191;-69
2024/03/01 07:08:39;;;;;;;14.73;9.40;;;;;;;7.95;100.00;100875.78;5030875;28;20196;-69
2024/03/01 07:11:04;;;;;;;13.73;9.30;;;;;;;7.74;100.00;100837.22;5034406;28;20227;-68
2024/03/01 07:13:30;;;;;;;19.07;9.23;;;;;;;7.35;100.00;100792.03;5039630;28;20445;-69
2024/03/01 07:15:55;;;;;;;12.97;8.40;;;;;;;8.22;100.00;100906.44;5047655;28;20180;-68
2024/03/01 07:18:21;;;;;;;14.83;9.53;;;;;;;8.22;100.00;100907.25;5031052;28;20187;-68
2024/03/01 07:20:46;;;;;;;14.23;9.60;;;;;;;7.74;100.00;100839.91;5036202;28;20199;-68
2024/03/01 07:23:12;;;;;;;16.47;9.87;;;;;;;8.17;100.00;100901.63;5034608;28;20285;-68
2024/03/01 07:25:37;;;;;;;17.53;10.10;;;;;;;8.23;100.00;100908.06;5050864;28;20192;-67
2024/03/01 07:28:03;;;;;;;16.70;9.70;;;;;;;8.13;100.00;100911.84;5036260;28;20270;-69
2024/03/01 07:30:28;;;;;;;16.53;10.20;;;;;;;8.08;100.00;100908.88;5032058;28;20704;-69
2024/03/01 07:32:53;;;;;;;15.87;9.53;;;;;;;7.85;100.00;100868.84;5032293;28;20573;-68
2024/03/01 07:35:19;;;;;;;16.57;9.97;;;;;;;7.33;100.00;100786.03;5029514;28;20219;-69
2024/03/01 07:37:47;;;;;;;19.83;9.73;;;;;;;7.98;100.00;100916.31;5025048;28;20299;-69
2024/03/01 07:40:12;;;;;;;16.17;9.27;;;;;;;8.16;100.00;100908.00;5034837;28;20708;-69
2024/03/01 07:42:39;;;;;;;14.80;9.40;;;;;;;8.15;100.00;100922.34;5033734;28;20473;-69
2024/03/01 07:45:05;;;;;;;20.10;11.30;;;;;;;7.47;100.00;100810.09;5034392;28;20282;-69
2024/03/01 07:47:31;;;;;;;15.90;10.47;;;;;;;7.59;100.00;100844.38;5029463;28;20602;-68
2024/03/01 07:49:57;;;;;;;15.20;10.90;;;;;;;8.00;100.00;100902.78;5030199;28;20911;-68
2024/03/01 07:52:27;;;;;;;14.30;9.90;;;;;;;7.35;100.00;100782.19;5031994;28;20495;-69
2024/03/01 07:54:52;;;;;;;17.00;10.63;;;;;;;7.93;100.00;100900.84;5046389;28;20431;-68
2024/03/01 07:57:18;;;;;;;14.77;10.10;;;;;;;7.85;100.00;100879.53;5032187;28;20449;-69
2024/03/01 07:59:43;;;;;;;18.87;11.27;;;;;;;7.84;100.00;100885.03;5036728;28;20192;-69
2024/03/01 08:02:10;;;;;;;16.33;11.10;;;;;;;7.84;100.00;100915.25;5029349;28;20185;-69
2024/03/01 08:04:36;;;;;;;15.43;9.80;;;;;;;8.09;100.00;100893.69;5026752;28;20227;-69
2024/03/01 08:07:02;;;;;;;14.50;9.37;;;;;;;7.69;100.00;100901.00;5035318;28;20887;-69
2024/03/01 08:09:32;;;;;;;16.10;10.57;;;;;;;8.02;100.00;100973.72;5033157;28;20663;-69
2024/03/01 08:11:58;;;;;;;16.37;11.20;;;;;;;7.82;100.00;100941.31;5032752;28;20257;-69
2024/03/01 08:14:31;;;;;;;15.80;9.37;;;;;;;8.17;100.00;100983.63;5036321;28;20802;-69
2024/03/01 08:16:57;;;;;;;14.93;9.87;;;;;;;8.06;100.00;100975.00;5032315;28;20481;-69
2024/03/01 08:19:41;;;;;;;18.50;10.57;;;;;;;7.98;100.00;100969.72;5032151;28;20470;-69
2024/03/01 08:22:09;;;;;;;17.37;10.33;;;;;;;8.15;100.00;100999.81;5033471;28;20181;-69
2024/03/01 08:24:35;;;;;;;15.80;10.03;;;;;;;8.07;100.00;100982.03;5033206;28;20522;-69
2024/03/01 08:27:02;;;;;;;17.10;10.87;;;;;;;8.12;100.00;100995.66;5033594;28;20808;-69
2024/03/01 08:29:28;;;;;;;17.03;11.17;;;;;;;8.10;100.00;101029.75;5033919;28;20450;-68
2024/03/01 08:31:54;;;;;;;15.47;10.07;;;;;;;7.86;100.00;100971.97;5033797;28;20487;-69
2024/03/01 08:34:21;;;;;;;16.50;11.57;;;;;;;7.46;100.00;100904.53;5031401;28;20536;-68
2024/03/01 08:36:49;;;;;;;14.57;10.17;;;;;;;7.97;100.00;100967.25;5031557;28;20180;-68
2024/03/01 08:39:19;;;;;;;14.67;9.40;;;;;;;7.87;100.00;100954.13;5032088;28;20554;-69
2024/03/01 08:41:52;;;;;;;13.17;9.03;;;;;;;7.83;100.00;100926.94;5031317;28;20969;-69
2024/03/01 08:44:39;;;;;;;13.00;8.73;;;;;;;7.76;100.00;100903.81;5029428;28;20453;-68
2024/03/01 08:47:06;;;;;;;14.63;8.83;;;;;;;7.70;100.00;100830.59;5035070;28;20532;-69
2024/03/01 08:50:20;;;;;;;8.10;5.23;;;;;;;7.72;100.00;100886.47;5036503;28;20443;-68
2024/03/01 08:52:47;;;;;;;5.60;1.97;;;;;;;7.34;100.00;100905.09;5022852;28;20489;-68
2024/03/01 08:55:42;;;;;;;4.60;1.67;;;;;;;7.38;100.00;100925.91;5038280;28;20464;-69
2024/03/01 08:58:16;;;;;;;5.07;1.50;;;;;;;7.38;100.00;100952.59;5032370;28;20446;-68
2024/03/01 09:00:53;;;;;;;5.00;1.50;;;;;;;7.34;100.00;100982.47;5032706;28;20474;-69
2024/03/01 09:03:23;;;;;;;4.47;1.30;;;;;;;7.01;100.00;100954.09;5035859;28;20442;-68
2024/03/01 09:05:50;;;;;;;4.00;0.90;;;;;;;7.04;100.00;101014.28;5032945;28;20439;-69
2024/03/01 09:08:36;;;;;;;9.23;1.30;;;;;;;6.56;100.00;100979.53;5033801;28;20451;-68
2024/03/01 09:11:02;;;;;;;4.20;1.00;;;;;;;6.65;100.00;100991.00;5033041;28;20473;-68
2024/03/01 09:13:30;;;;;;;5.97;1.07;;;;;;;6.09;100.00;100950.94;5035773;28;20473;-68
2024/03/01 09:15:57;;;;;;;5.57;1.03;;;;;;;6.91;100.00;101104.63;5037055;28;20481;-68
2024/03/01 09:18:57;;;;;;;4.50;0.97;;;;;;;6.88;100.00;101129.78;5036467;28;20544;-69
2024/03/01 09:21:34;;;;;;;7.33;2.60;;;;;;;6.90;100.00;101151.78;5024981;28;20993;-69
2024/03/01 09:24:00;;;;;;;6.57;1.20;;;;;;;6.86;100.00;101121.16;5049040;28;20442;-68
2024/03/01 09:26:25;;;;;;;6.50;1.90;;;;;;;7.06;100.00;101166.13;5036716;28;20449;-68
2024/03/01 09:28:58;;;;;;;5.77;1.80;;;;;;;6.51;100.00;101108.97;5033332;28;20926;-68
2024/03/01 09:31:24;;;;;;;5.43;1.30;;;;;;;7.07;100.00;101207.81;5030461;28;20356;-68
2024/03/01 09:33:49;;;;;;;5.47;1.20;;;;;;;6.89;100.00;101165.31;5036059;28;20474;-68
2024/03/01 09:36:18;;;;;;;7.10;1.20;;;;;;;7.26;100.00;101220.78;5035331;28;20638;-69
2024/03/01 09:38:54;;;;;;;6.80;1.80;;;;;;;7.22;100.00;101233.63;5025947;28;20228;-69
2024/03/01 09:41:19;;;;;;;5.50;1.30;;;;;;;7.42;100.00;101284.00;5030998;28;20952;-69
2024/03/01 09:44:17;;;;;;;6.00;1.30;;;;;;;6.93;100.00;101212.78;5038595;28;20460;-68
2024/03/01 09:46:48;;;;;;;5.33;1.63;;;;;;;7.57;100.00;101361.59;5035741;28;20346;-69
2024/03/01 09:49:34;;;;;;;6.73;1.53;;;;;;;7.64;100.00;101391.97;5035176;28;20455;-69
2024/03/01 09:52:18;;;;;;;5.13;1.10;;;;;;;7.68;100.00;101436.84;5034228;28;20473;-69
2024/03/01 09:55:16;;;;;;;5.50;1.30;;;;;;;7.80;100.00;101465.91;5032404;28;20446;-68
2024/03/01 09:58:09;;;;;;;5.40;1.60;;;;;;;7.77;100.00;101528.50;5028771;28;20484;-69
2024/03/01 10:00:46;;;;;;;5.00;1.60;;;;;;;7.29;100.00;101451.78;5028958;28;20458;-69
2024/03/01 10:03:21;;;;;;;7.20;1.97;;;;;;;7.98;100.00;101583.28;5036694;28;20800;-70
2024/03/01 10:06:12;;;;;;;6.20;1.40;;;;;;;7.94;100.00;101606.84;5029363;28;20952;-69
2024/03/01 10:08:53;;;;;;;6.77;1.30;;;;;;;7.82;100.00;101667.72;5026703;28;21075;-69
2024/03/01 10:11:19;;;;;;;6.00;1.20;;;;;;;8.04;100.00;101626.25;5028679;28;20484;-68
2024/03/01 10:13:53;;;;;;;5.47;1.47;;;;;;;8.06;100.00;101594.84;5036241;28;20445;-69
2024/03/01 10:16:30;;;;;;;6.80;2.30;;;;;;;7.98;100.00;101613.50;5033126;28;20198;-69
2024/03/01 10:18:59;;;;;;;5.50;1.20;;;;;;;7.89;100.00;101601.97;5033537;28;20936;-69
2024/03/01 10:21:35;;;;;;;5.47;1.33;;;;;;;8.07;100.00;101576.97;5030280;28;20564;-68
2024/03/01 10:24:20;;;;;;;4.63;1.10;;;;;;;8.09;100.00;101565.13;5030166;28;20558;-69
2024/03/01 10:27:01;;;;;;;6.70;1.07;;;;;;;8.06;100.00;101559.28;5029420;28;20888;-69
2024/03/01 10:29:54;;;;;;;7.23;1.20;;;;;;;8.05;100.00;101544.25;5032472;28;20450;-70
2024/03/01 10:32:37;;;;;;;7.60;1.00;;;;;;;7.92;100.00;101539.38;5025680;28;20450;-69
2024/03/01 10:35:20;;;;;;;7.50;1.33;;;;;;;7.77;100.00;101519.66;5037454;28;20971;-69
2024/03/01 10:38:13;;;;;;;7.20;1.20;;;;;;;7.95;100.00;101490.13;5058990;22;20588;-71
2024/03/01 10:40:54;;;;;;;10.20;1.87;;;;;;;7.82;100.00;101502.13;5007314;28;20455;-72
2024/03/01 10:43:56;;;;;;;5.47;1.40;;;;;;;7.84;100.00;101529.53;5014021;28;20942;-71
2024/03/01 10:46:43;;;;;;;4.50;0.97;;;;;;;7.57;100.00;101535.94;5011228;28;20442;-72
2024/03/01 10:49:18;;;;;;;6.23;1.03;;;;;;;7.47;100.00;101476.53;5014535;28;20941;-72
2024/03/01 10:52:10;;;;;;;6.17;0.97;;;;;;;7.84;100.00;101585.63;5011381;28;20486;-71
2024/03/01 10:54:37;;;;;;;4.60;0.87;;;;;;;7.69;100.00;101609.44;5003100;28;20474;-69
2024/03/01 10:57:07;;;;;;;6.33;1.07;;;;;;;7.23;100.00;101533.31;5011004;28;20436;-69
2024/03/01 10:59:38;;;;;;;4.53;0.70;;;;;;;7.60;100.00;101580.19;5010403;28;20439;-69
2024/03/01 11:02:16;;;;;;;5.57;0.80;;;;;;;7.91;100.00;101642.72;5014610;28;20450;-69
2024/03/01 11:05:14;;;;;;;4.57;0.80;;;;;;;7.86;100.00;101586.28;5011566;28;20447;-69
2024/03/01 11:07:58;;;;;;;6.50;0.90;;;;;;;7.96;100.00;101634.22;5011701;28;20447;-69
2024/03/01 11:10:58;;;;;;;4.40;0.90;;;;;;;7.83;100.00;101567.06;5007299;28;20470;-69
2024/03/01 11:13:27;;;;;;;4.70;1.07;;;;;;;8.11;100.00;101600.53;5007491;28;20440;-69
2024/03/01 11:15:56;;;;;;;8.77;1.40;;;;;;;7.84;100.00;101572.25;5010860;28;20455;-70
2024/03/01 11:18:26;;;;;;;5.37;0.80;;;;;;;7.95;100.00;101532.88;5004967;28;20471;-69
2024/03/01 11:20:59;;;;;;;5.40;1.37;;;;;;;7.89;100.00;101489.78;5008292;28;20455;-69
2024/03/01 11:23:39;;;;;;;5.17;1.60;;;;;;;7.88;100.00;101501.47;5005286;28;20863;-69
2024/03/01 11:26:15;;;;;;;5.93;1.60;;;;;;;7.45;100.00;101438.47;5009751;28;20486;-69